Time;durP1;ratioP1;P1;durP2;ratioP2;P2;SDS_P1;SDS_P2;PMS_P1;PMS_P2;Temp;Humidity;BMP_temperature;BMP_pressure;BME280_temperature;BME280_humidity;BME280_pressure;Samples;Min_cycle;Max_cycle;Signal;HPM_P1;HPM_P2
2022/02/08 00:00:09;;;;;;;;;;;3.60;77.40;;;;;;5025396;28;87763;-44
2022/02/08 00:02:37;;;;;;;;;;;3.60;77.50;;;;;;5025202;28;88258;-44
2022/02/08 00:05:05;;;;;;;;;;;3.60;77.40;;;;;;5028166;28;87129;-44
2022/02/08 00:07:32;;;;;;;;;;;3.50;77.40;;;;;;5025399;28;88742;-45
2022/02/08 00:09:58;;;;;;;;;;;3.50;77.50;;;;;;5025107;28;87146;-46
2022/02/08 00:12:23;;;;;;;;;;;3.50;77.40;;;;;;5025043;28;88749;-45
2022/02/08 00:14:50;;;;;;;;;;;3.50;77.50;;;;;;5024085;28;90395;-45
2022/02/08 00:17:16;;;;;;;;;;;3.50;77.50;;;;;;5025184;28;87201;-45
2022/02/08 00:19:41;;;;;;;;;;;3.50;77.60;;;;;;5025180;28;89387;-45
2022/02/08 00:22:07;;;;;;;;;;;3.50;77.40;;;;;;5024545;28;89567;-45
2022/02/08 00:24:33;;;;;;;;;;;3.40;77.40;;;;;;5024929;28;87169;-49
2022/02/08 00:26:59;;;;;;;;;;;3.50;77.50;;;;;;5027103;28;88767;-43
2022/02/08 00:29:24;;;;;;;;;;;3.40;77.40;;;;;;5024325;28;87148;-45
2022/02/08 00:31:50;;;;;;;;;;;3.50;77.20;;;;;;5025278;28;89112;-48
2022/02/08 00:34:15;;;;;;;;;;;3.40;77.40;;;;;;5024488;28;89602;-46
2022/02/08 00:36:41;;;;;;;;;;;3.40;77.20;;;;;;5024665;28;87125;-43
2022/02/08 00:39:08;;;;;;;;;;;3.40;77.20;;;;;;5024266;28;89200;-46
2022/02/08 00:41:35;;;;;;;;;;;3.40;77.20;;;;;;5024397;28;89539;-44
2022/02/08 00:44:08;;;;;;;;;;;3.40;77.20;;;;;;5024025;28;87175;-45
2022/02/08 00:46:44;;;;;;;;;;;3.40;77.10;;;;;;5027347;28;88762;-45
2022/02/08 00:49:11;;;;;;;;;;;3.40;77.20;;;;;;5024538;28;86971;-45
2022/02/08 00:51:47;;;;;;;;;;;3.40;77.00;;;;;;5024495;28;88550;-46
2022/02/08 00:54:12;;;;;;;;;;;3.40;77.10;;;;;;5024318;28;89725;-48
2022/02/08 00:56:38;;;;;;;;;;;3.30;77.00;;;;;;5024827;28;86342;-44
2022/02/08 00:59:04;;;;;;;;;;;3.30;77.10;;;;;;5024551;28;88083;-44
2022/02/08 01:01:33;;;;;;;;;;;3.30;77.10;;;;;;5024123;28;89388;-45
2022/02/08 01:03:59;;;;;;;;;;;3.30;76.90;;;;;;5023755;28;88014;-44
2022/02/08 01:06:25;;;;;;;;;;;3.30;76.60;;;;;;5024268;28;90321;-47
2022/02/08 01:08:52;;;;;;;;;;;3.30;76.60;;;;;;5026672;28;89464;-45
2022/02/08 01:11:19;;;;;;;;;;;3.30;76.90;;;;;;5024166;28;88864;-46
2022/02/08 01:13:44;;;;;;;;;;;3.30;77.00;;;;;;5023919;28;89264;-44
2022/02/08 01:16:10;;;;;;;;;;;3.30;77.10;;;;;;5024232;28;87067;-44
2022/02/08 01:18:40;;;;;;;;;;;3.20;76.90;;;;;;5024260;28;88681;-48
2022/02/08 01:21:06;;;;;;;;;;;3.20;76.80;;;;;;5024139;28;90235;-46
2022/02/08 01:23:32;;;;;;;;;;;3.20;77.00;;;;;;5024108;28;87119;-46
2022/02/08 01:25:58;;;;;;;;;;;3.20;76.70;;;;;;5024036;28;88685;-45
2022/02/08 01:28:35;;;;;;;;;;;3.20;76.90;;;;;;5022920;28;90483;-46
2022/02/08 01:31:03;;;;;;;;;;;3.20;77.00;;;;;;5027007;28;86925;-47
2022/02/08 01:38:49;;;;;;;;;;;3.10;76.60;;;;;;5021222;28;86875;-46
2022/02/08 01:49:30;;;;;;;;;;;3.10;77.00;;;;;;5021464;28;87346;-47
2022/02/08 01:51:57;;;;;;;;;;;3.10;76.50;;;;;;5023902;28;86819;-46
2022/02/08 01:54:23;;;;;;;;;;;3.00;76.50;;;;;;5025597;28;87732;-46
2022/02/08 01:56:49;;;;;;;;;;;3.00;76.70;;;;;;5023657;28;86880;-44
2022/02/08 01:59:15;;;;;;;;;;;3.00;76.50;;;;;;5023170;28;88874;-45
2022/02/08 02:01:41;;;;;;;;;;;3.10;76.40;;;;;;5023179;28;89792;-47
2022/02/08 02:04:07;;;;;;;;;;;3.00;76.80;;;;;;5023434;28;87094;-47
2022/02/08 02:06:32;;;;;;;;;;;3.00;76.40;;;;;;5023285;28;88777;-45
2022/02/08 02:08:58;;;;;;;;;;;3.00;76.20;;;;;;5023221;28;87185;-44
2022/02/08 02:11:23;;;;;;;;;;;3.00;76.30;;;;;;5023876;28;86371;-44
2022/02/08 02:13:50;;;;;;;;;;;3.00;76.20;;;;;;5023285;28;88271;-47
2022/02/08 02:16:23;;;;;;;;;;;3.00;77.00;;;;;;5026080;28;89564;-47
2022/02/08 02:18:48;;;;;;;;;;;3.00;76.20;;;;;;5022860;28;88826;-45
2022/02/08 02:21:15;;;;;;;;;;;3.00;76.30;;;;;;5022850;28;89349;-46
2022/02/08 02:23:44;;;;;;;;;;;2.90;76.40;;;;;;5023231;28;87105;-44
2022/02/08 02:26:10;;;;;;;;;;;2.90;76.20;;;;;;5023234;28;89059;-45
2022/02/08 02:28:36;;;;;;;;;;;2.90;76.30;;;;;;5022669;28;89404;-43
2022/02/08 02:31:02;;;;;;;;;;;2.90;76.50;;;;;;5023131;28;87141;-45
2022/02/08 02:33:27;;;;;;;;;;;2.90;76.40;;;;;;5022956;28;88634;-45
2022/02/08 02:35:53;;;;;;;;;;;2.90;76.40;;;;;;5023399;28;89611;-45
2022/02/08 02:38:23;;;;;;;;;;;2.90;76.10;;;;;;5025981;28;87057;-43
2022/02/08 02:40:48;;;;;;;;;;;2.90;76.10;;;;;;5022604;28;89352;-44
2022/02/08 02:43:14;;;;;;;;;;;2.90;76.10;;;;;;5022012;28;88169;-44
2022/02/08 02:45:39;;;;;;;;;;;2.90;76.10;;;;;;5023005;28;89788;-46
2022/02/08 02:48:05;;;;;;;;;;;2.90;75.30;;;;;;5022528;28;89565;-45
2022/02/08 02:50:31;;;;;;;;;;;2.80;76.00;;;;;;5023384;28;87117;-44
2022/02/08 02:52:56;;;;;;;;;;;2.90;76.10;;;;;;5026306;28;89091;-46
2022/02/08 02:55:22;;;;;;;;;;;2.90;75.90;;;;;;5025998;28;89635;-44
2022/02/08 02:57:50;;;;;;;;;;;2.80;76.00;;;;;;5028816;28;87112;-44
2022/02/08 03:00:35;;;;;;;;;;;2.80;76.10;;;;;;5026513;28;88556;-45
2022/02/08 03:03:14;;;;;;;;;;;2.80;76.00;;;;;;5026346;28;86950;-44
2022/02/08 03:19:21;;;;;;;;;;;2.80;75.70;;;;;;5026323;28;87109;-43
2022/02/08 03:21:46;;;;;;;;;;;2.70;75.90;;;;;;5028662;28;89037;-43
2022/02/08 03:24:12;;;;;;;;;;;2.70;75.60;;;;;;5025963;28;87807;-43
2022/02/08 03:26:37;;;;;;;;;;;2.80;75.80;;;;;;5026147;28;88669;-45
2022/02/08 03:29:03;;;;;;;;;;;2.70;75.70;;;;;;5025293;28;89415;-43
2022/02/08 03:31:28;;;;;;;;;;;2.70;75.70;;;;;;5025660;28;87065;-44
2022/02/08 03:33:54;;;;;;;;;;;2.70;75.90;;;;;;5025293;28;89017;-45
2022/02/08 03:36:20;;;;;;;;;;;2.70;75.70;;;;;;5025480;28;89548;-44
2022/02/08 03:38:48;;;;;;;;;;;2.70;75.70;;;;;;5025847;28;86990;-44
2022/02/08 03:41:14;;;;;;;;;;;2.70;75.40;;;;;;5025688;28;88987;-45
2022/02/08 03:43:44;;;;;;;;;;;2.70;75.20;;;;;;5027768;28;88307;-45
2022/02/08 03:46:16;;;;;;;;;;;2.70;75.50;;;;;;5025691;28;87953;-46
2022/02/08 03:48:43;;;;;;;;;;;2.70;76.00;;;;;;5025235;28;89425;-44
2022/02/08 03:51:11;;;;;;;;;;;2.60;75.70;;;;;;5026024;28;86409;-43
2022/02/08 03:53:38;;;;;;;;;;;2.70;75.60;;;;;;5025617;28;88042;-45
2022/02/08 03:56:06;;;;;;;;;;;2.70;75.60;;;;;;5024943;28;89293;-44
2022/02/08 03:58:31;;;;;;;;;;;2.70;75.70;;;;;;5024796;28;87794;-46
2022/02/08 04:01:43;;;;;;;;;;;2.70;75.60;;;;;;5025285;28;90081;-44
2022/02/08 04:06:29;;;;;;;;;;;2.70;76.20;;;;;;5027805;28;86915;-44
2022/02/08 04:08:57;;;;;;;;;;;2.70;75.20;;;;;;5024595;28;89447;-46
2022/02/08 04:11:23;;;;;;;;;;;2.60;75.30;;;;;;5025187;28;87135;-46
2022/02/08 04:13:57;;;;;;;;;;;2.60;75.30;;;;;;5025403;28;89320;-43
2022/02/08 04:16:31;;;;;;;;;;;2.60;75.40;;;;;;5025583;28;88817;-46
2022/02/08 04:19:17;;;;;;;;;;;2.60;75.40;;;;;;5025226;28;86883;-45
2022/02/08 04:33:03;;;;;;;;;;;2.60;75.20;;;;;;5023049;28;86906;-44
2022/02/08 04:35:57;;;;;;;;;;;2.60;75.50;;;;;;5024896;28;88872;-43
2022/02/08 04:38:43;;;;;;;;;;;2.60;75.30;;;;;;5024447;28;89589;-43
2022/02/08 04:41:16;;;;;;;;;;;2.60;75.30;;;;;;5024634;28;86864;-46
2022/02/08 04:43:55;;;;;;;;;;;2.50;75.30;;;;;;5024639;28;88951;-44
2022/02/08 04:46:31;;;;;;;;;;;2.50;75.10;;;;;;5024206;28;89648;-44
2022/02/08 04:48:58;;;;;;;;;;;2.50;75.20;;;;;;5024840;28;87002;-44
2022/02/08 04:51:33;;;;;;;;;;;2.50;75.20;;;;;;5023979;28;88834;-43
2022/02/08 05:44:56;;;;;;;;;;;2.40;74.80;;;;;;5022891;28;88053;-44
2022/02/08 05:47:08;;;;;;;;;;;2.40;74.90;;;;;;5021222;28;89437;-42
2022/02/08 05:49:50;;;;;;;;;;;2.30;74.70;;;;;;5023265;28;89631;-47
2022/02/08 05:54:47;;;;;;;;;;;2.30;75.00;;;;;;5022916;28;87339;-44
2022/02/08 05:57:13;;;;;;;;;;;2.30;75.00;;;;;;5023369;28;89353;-46
2022/02/08 05:59:39;;;;;;;;;;;2.30;75.00;;;;;;5023387;28;87143;-43
2022/02/08 06:02:04;;;;;;;;;;;2.30;74.80;;;;;;5026682;28;87853;-45
2022/02/08 06:04:34;;;;;;;;;;;2.40;75.00;;;;;;5023415;28;87114;-46
2022/02/08 06:06:59;;;;;;;;;;;2.30;74.60;;;;;;5023428;28;89035;-45
2022/02/08 06:09:25;;;;;;;;;;;2.30;74.90;;;;;;5022335;28;90626;-44
2022/02/08 06:11:51;;;;;;;;;;;2.30;74.90;;;;;;5023449;28;87135;-45
2022/02/08 06:14:24;;;;;;;;;;;2.30;74.70;;;;;;5023159;28;88350;-45
2022/02/08 06:16:49;;;;;;;;;;;2.30;74.80;;;;;;5022965;28;89392;-44
2022/02/08 06:19:15;;;;;;;;;;;2.20;74.90;;;;;;5023284;28;87101;-43
2022/02/08 06:21:40;;;;;;;;;;;2.30;75.00;;;;;;5023373;28;87429;-44
2022/02/08 06:24:07;;;;;;;;;;;2.30;75.00;;;;;;5025791;28;89609;-43
2022/02/08 06:26:32;;;;;;;;;;;2.30;74.80;;;;;;5025794;28;88775;-45
2022/02/08 06:29:08;;;;;;;;;;;2.30;74.80;;;;;;5026301;28;89691;-44
2022/02/08 06:31:34;;;;;;;;;;;2.20;74.90;;;;;;5026963;28;87009;-44
2022/02/08 06:34:00;;;;;;;;;;;2.30;74.90;;;;;;5026172;28;88889;-43
2022/02/08 06:36:25;;;;;;;;;;;2.30;75.00;;;;;;5026346;28;89462;-44
2022/02/08 06:38:51;;;;;;;;;;;2.30;74.80;;;;;;5026575;28;87176;-44
2022/02/08 06:41:17;;;;;;;;;;;2.30;74.90;;;;;;5026644;28;88632;-43
2022/02/08 06:43:43;;;;;;;;;;;2.30;74.90;;;;;;5025447;28;89753;-44
2022/02/08 06:46:08;;;;;;;;;;;2.20;74.90;;;;;;5029303;28;87119;-44
2022/02/08 06:48:34;;;;;;;;;;;2.20;74.80;;;;;;5026003;28;89844;-44
2022/02/08 06:50:59;;;;;;;;;;;2.20;74.90;;;;;;5026970;28;86450;-43
2022/02/08 06:53:26;;;;;;;;;;;2.20;74.90;;;;;;5026368;28;88189;-44
2022/02/08 06:55:52;;;;;;;;;;;2.20;74.90;;;;;;5026111;28;88661;-44
2022/02/08 06:58:19;;;;;;;;;;;2.20;74.80;;;;;;5025606;28;87979;-44
2022/02/08 07:00:47;;;;;;;;;;;2.20;74.80;;;;;;5026322;28;88876;-45
2022/02/08 07:03:14;;;;;;;;;;;2.20;74.80;;;;;;5025936;28;89525;-44
2022/02/08 07:05:40;;;;;;;;;;;2.20;75.00;;;;;;5026086;28;87212;-43
2022/02/08 07:08:06;;;;;;;;;;;2.20;74.90;;;;;;5028851;28;88905;-43
2022/02/08 07:10:33;;;;;;;;;;;2.20;74.90;;;;;;5026039;28;87152;-45
2022/02/08 07:12:58;;;;;;;;;;;2.20;74.80;;;;;;5026068;28;89116;-45
2022/02/08 07:15:24;;;;;;;;;;;2.20;74.60;;;;;;5026260;28;89287;-43
2022/02/08 07:17:49;;;;;;;;;;;2.20;74.70;;;;;;5025913;28;87147;-44
2022/02/08 07:20:15;;;;;;;;;;;2.20;74.80;;;;;;5024754;28;90111;-43
2022/02/08 07:22:41;;;;;;;;;;;2.20;75.00;;;;;;5024865;28;89843;-43
2022/02/08 07:25:07;;;;;;;;;;;2.20;74.90;;;;;;5025933;28;87179;-43
2022/02/08 07:27:32;;;;;;;;;;;2.20;74.80;;;;;;5028322;28;87993;-44
2022/02/08 07:29:58;;;;;;;;;;;2.10;74.90;;;;;;5026146;28;87016;-43
2022/02/08 07:32:36;;;;;;;;;;;2.10;74.80;;;;;;5025884;28;89014;-45
2022/02/08 07:42:53;;;;;;;;;;;2.10;74.90;;;;;;5023128;28;88009;-43
2022/02/08 07:45:19;;;;;;;;;;;2.10;74.70;;;;;;5024459;28;87018;-44
2022/02/08 07:47:44;;;;;;;;;;;2.10;74.80;;;;;;5024953;28;88931;-45
2022/02/08 07:50:12;;;;;;;;;;;2.10;75.30;;;;;;5027900;28;89846;-44
2022/02/08 07:52:38;;;;;;;;;;;2.10;74.70;;;;;;5025117;28;88485;-46
2022/02/08 07:55:04;;;;;;;;;;;2.10;74.60;;;;;;5025037;28;89562;-43
2022/02/08 07:57:29;;;;;;;;;;;2.20;74.60;;;;;;5025491;28;87104;-44
2022/02/08 07:59:55;;;;;;;;;;;2.10;74.60;;;;;;5025344;28;88945;-45
2022/02/08 08:02:20;;;;;;;;;;;2.10;74.70;;;;;;5024968;28;89488;-43
2022/02/08 08:04:46;;;;;;;;;;;2.20;74.50;;;;;;5024562;28;86263;-43
2022/02/08 08:07:11;;;;;;;;;;;2.10;74.40;;;;;;5025165;28;88044;-43
2022/02/08 08:09:40;;;;;;;;;;;2.20;74.40;;;;;;5024842;28;89515;-44
2022/02/08 08:12:06;;;;;;;;;;;2.20;74.40;;;;;;5027595;28;88144;-44
2022/02/08 08:14:33;;;;;;;;;;;2.20;74.40;;;;;;5024805;28;89582;-45
2022/02/08 08:19:47;;;;;;;;;;;2.20;74.40;;;;;;5004520;28;87125;-43
2022/02/08 08:22:13;;;;;;;;;;;2.10;74.40;;;;;;5024608;28;89720;-45
2022/02/08 08:24:38;;;;;;;;;;;2.10;74.40;;;;;;5025105;28;86901;-44
2022/02/08 08:27:04;;;;;;;;;;;2.10;74.40;;;;;;5024994;28;88978;-48
2022/02/08 08:29:30;;;;;;;;;;;2.20;74.50;;;;;;5025024;28;89114;-44
2022/02/08 08:31:56;;;;;;;;;;;2.10;74.30;;;;;;5024939;28;87025;-44
2022/02/08 08:34:21;;;;;;;;;;;2.10;74.30;;;;;;5027335;28;86893;-45
2022/02/08 08:36:50;;;;;;;;;;;2.10;74.40;;;;;;5024414;28;87735;-45
2022/02/08 08:39:18;;;;;;;;;;;2.10;74.30;;;;;;5024755;28;89534;-44
2022/02/08 08:41:53;;;;;;;;;;;2.10;74.30;;;;;;5024408;28;89212;-45
2022/02/08 08:52:23;;;;;;;;;;;2.10;74.00;;;;;;5023457;28;86923;-45
2022/02/08 08:54:49;;;;;;;;;;;2.10;74.00;;;;;;5025097;28;88828;-44
2022/02/08 08:57:14;;;;;;;;;;;2.10;74.00;;;;;;5026984;28;89847;-45
2022/02/08 08:59:40;;;;;;;;;;;2.10;74.20;;;;;;5024398;28;89075;-45
2022/02/08 09:02:05;;;;;;;;;;;2.10;74.10;;;;;;5023361;28;90381;-45
2022/02/08 09:04:34;;;;;;;;;;;2.20;74.10;;;;;;5024393;28;87148;-46
2022/02/08 09:07:00;;;;;;;;;;;2.20;74.00;;;;;;5024357;28;88708;-43
2022/02/08 09:09:27;;;;;;;;;;;2.20;73.90;;;;;;5023798;28;89382;-45
2022/02/08 09:30:16;;;;;;;;;;;2.10;73.90;;;;;;5023053;28;87808;-44
2022/02/08 09:32:49;;;;;;;;;;;2.10;74.10;;;;;;5023856;28;87081;-44
2022/02/08 09:35:15;;;;;;;;;;;2.10;74.20;;;;;;5024137;28;88815;-45
2022/02/08 09:37:41;;;;;;;;;;;2.10;74.10;;;;;;5023485;28;89175;-48
2022/02/08 09:40:08;;;;;;;;;;;2.20;73.80;;;;;;5026677;28;87094;-46
2022/02/08 09:42:34;;;;;;;;;;;2.10;74.10;;;;;;5022746;28;89627;-43
2022/02/08 09:45:00;;;;;;;;;;;2.10;74.00;;;;;;5024331;28;86183;-45
2022/02/08 09:47:38;;;;;;;;;;;2.20;74.00;;;;;;5023663;28;88123;-43
2022/02/08 09:50:13;;;;;;;;;;;2.10;73.90;;;;;;5023414;28;89243;-45
2022/02/08 09:52:40;;;;;;;;;;;2.10;73.80;;;;;;5023108;28;87915;-46
2022/02/08 09:55:05;;;;;;;;;;;2.20;73.90;;;;;;5022315;28;91343;-42
2022/02/08 09:57:31;;;;;;;;;;;2.10;73.90;;;;;;5023111;28;89596;-44
2022/02/08 09:59:56;;;;;;;;;;;2.10;74.10;;;;;;5022683;28;87111;-44
2022/02/08 10:02:23;;;;;;;;;;;2.10;74.20;;;;;;5025706;28;88497;-45
2022/02/08 10:04:59;;;;;;;;;;;2.20;73.90;;;;;;5023729;28;87146;-45
2022/02/08 10:07:25;;;;;;;;;;;2.20;74.00;;;;;;5023520;28;87741;-45
2022/02/08 10:09:50;;;;;;;;;;;2.10;73.90;;;;;;5023575;28;88072;-48
2022/02/08 10:12:20;;;;;;;;;;;2.10;74.00;;;;;;5023383;28;86975;-46
2022/02/08 10:22:42;;;;;;;;;;;2.10;74.00;;;;;;5023655;28;86864;-44
2022/02/08 10:25:09;;;;;;;;;;;2.10;74.00;;;;;;5025506;28;88551;-44
2022/02/08 10:27:42;;;;;;;;;;;2.10;73.90;;;;;;5023043;28;88920;-43
2022/02/08 10:38:21;;;;;;;;;;;2.10;74.00;;;;;;5020991;28;87275;-45
2022/02/08 10:40:47;;;;;;;;;;;2.10;74.30;;;;;;5023068;28;87114;-46
2022/02/08 10:43:15;;;;;;;;;;;2.10;74.20;;;;;;5021789;28;88813;-45
2022/02/08 10:45:43;;;;;;;;;;;2.00;74.20;;;;;;5022604;28;89478;-45
2022/02/08 10:48:10;;;;;;;;;;;2.10;73.90;;;;;;5025747;28;87296;-45
2022/02/08 10:50:38;;;;;;;;;;;2.10;73.90;;;;;;5022717;28;87908;-43
2022/02/08 10:53:06;;;;;;;;;;;2.10;73.80;;;;;;5022940;28;87224;-44
2022/02/08 10:55:57;;;;;;;;;;;2.10;73.90;;;;;;5022932;28;89314;-44
2022/02/08 10:58:34;;;;;;;;;;;2.10;73.90;;;;;;5022632;28;89640;-43
2022/02/08 11:01:06;;;;;;;;;;;2.10;73.70;;;;;;5023355;28;86154;-45
2022/02/08 11:03:40;;;;;;;;;;;2.10;73.80;;;;;;5022738;28;88079;-44
2022/02/08 11:06:20;;;;;;;;;;;2.00;73.90;;;;;;5022434;28;89464;-43
2022/02/08 11:09:05;;;;;;;;;;;2.00;73.90;;;;;;5022098;28;87869;-43
2022/02/08 11:19:51;;;;;;;;;;;2.10;73.90;;;;;;5025985;28;87281;-45
2022/02/08 11:24:56;;;;;;;;;;;2.10;73.80;;;;;;5024810;28;87436;-45
2022/02/08 11:27:21;;;;;;;;;;;2.10;74.00;;;;;;5026238;28;88177;-45
2022/02/08 11:29:53;;;;;;;;;;;2.10;73.90;;;;;;5025800;28;86973;-44
2022/02/08 11:32:38;;;;;;;;;;;2.10;73.90;;;;;;5027186;28;90439;-43
2022/02/08 11:42:49;;;;;;;;;;;2.10;74.10;;;;;;5025878;28;87659;-45
2022/02/08 11:51:58;;;;;;;;;;;2.00;73.90;;;;;;5003339;28;87062;-45
2022/02/08 11:59:52;;;;;;;;;;;2.00;74.10;;;;;;5025587;28;87252;-45
2022/02/08 12:07:37;;;;;;;;;;;2.00;74.30;;;;;;5025232;28;87943;-44
2022/02/08 12:10:24;;;;;;;;;;;2.00;74.40;;;;;;5023643;28;91002;-44
2022/02/08 12:59:57;;;;;;;;;;;1.90;74.40;;;;;;5023975;28;88446;-44
2022/02/08 13:04:51;;;;;;;;;;;1.90;74.30;;;;;;5024571;28;87080;-44
2022/02/08 14:01:54;;;;;;;;;;;1.90;74.60;;;;;;5023758;28;86996;-45
2022/02/08 14:07:09;;;;;;;;;;;1.90;74.40;;;;;;5021065;28;87288;-44
2022/02/08 14:14:34;;;;;;;;;;;1.90;74.40;;;;;;5023377;28;87937;-41
2022/02/08 14:22:33;;;;;;;;;;;1.90;74.60;;;;;;5021808;28;87165;-44
2022/02/08 14:30:38;;;;;;;;;;;2.00;74.70;;;;;;5023412;28;87062;-44
2022/02/08 15:08:39;;;;;;;;;;;1.80;75.10;;;;;;4986688;28;86935;-43
2022/02/08 15:11:10;;;;;;;;;;;1.80;75.30;;;;;;4982960;28;90708;-45
2022/02/08 15:13:43;;;;;;;;;;;1.80;75.30;;;;;;5005702;28;87102;-44
2022/02/08 15:18:40;;;;;;;;;;;1.80;75.30;;;;;;5024363;28;87857;-45
2022/02/08 15:21:10;;;;;;;;;;;1.80;75.10;;;;;;5026019;28;87233;-45
2022/02/08 15:23:36;;;;;;;;;;;1.80;75.30;;;;;;5026005;28;89139;-46
2022/02/08 15:26:01;;;;;;;;;;;1.80;75.20;;;;;;5025435;28;89588;-46
2022/02/08 15:28:28;;;;;;;;;;;1.80;75.10;;;;;;5026420;28;86382;-47
2022/02/08 15:30:55;;;;;;;;;;;1.80;75.20;;;;;;5028446;28;88082;-45
2022/02/08 15:33:21;;;;;;;;;;;1.80;75.20;;;;;;5025941;28;87128;-46
2022/02/08 15:35:46;;;;;;;;;;;1.80;75.10;;;;;;5025428;28;88673;-46
2022/02/08 15:38:12;;;;;;;;;;;1.80;75.10;;;;;;5025621;28;89558;-46
2022/02/08 15:40:38;;;;;;;;;;;1.80;75.10;;;;;;5025709;28;87118;-46
2022/02/08 15:43:03;;;;;;;;;;;1.80;75.10;;;;;;5024744;28;88764;-46
2022/02/08 15:45:33;;;;;;;;;;;1.80;75.10;;;;;;5025200;28;89340;-46
2022/02/08 15:48:00;;;;;;;;;;;1.80;75.10;;;;;;5025638;28;86896;-44
2022/02/08 16:08:39;;;;;;;;;;;1.80;74.70;;;;;;5001165;28;87109;-46
2022/02/08 16:18:38;;;;;;;;;;;1.80;74.60;;;;;;5025187;28;87322;-45
2022/02/08 16:26:39;;;;;;;;;;;1.80;74.70;;;;;;5023224;28;88190;-45
2022/02/08 17:00:29;;;;;;;;;;;1.80;74.80;;;;;;5027316;28;87234;-45
2022/02/08 17:03:00;;;;;;;;;;;1.80;74.70;;;;;;5024438;28;86973;-44
2022/02/08 17:05:25;;;;;;;;;;;1.80;74.80;;;;;;5024524;28;88803;-45
2022/02/08 17:07:51;;;;;;;;;;;1.80;74.60;;;;;;5023887;28;89584;-43
2022/02/08 17:10:31;;;;;;;;;;;1.80;74.60;;;;;;5024114;28;86385;-42
2022/02/08 17:13:20;;;;;;;;;;;1.80;74.50;;;;;;5024237;28;88126;-43
2022/02/08 17:16:16;;;;;;;;;;;1.80;74.30;;;;;;5024140;28;89345;-44
2022/02/08 17:48:14;;;;;;;;;;;1.80;74.70;;;;;;5026486;28;86894;-44
2022/02/08 17:50:41;;;;;;;;;;;1.80;74.40;;;;;;5023296;28;89192;-44
2022/02/08 17:53:07;;;;;;;;;;;1.80;74.50;;;;;;5023543;28;86973;-43
2022/02/08 17:55:32;;;;;;;;;;;1.80;74.60;;;;;;5023909;28;88919;-44
2022/02/08 17:58:00;;;;;;;;;;;1.80;74.80;;;;;;5023349;28;89960;-43
2022/02/08 18:00:26;;;;;;;;;;;1.80;74.40;;;;;;5023567;28;87051;-44
2022/02/08 18:02:51;;;;;;;;;;;1.70;74.50;;;;;;5023992;28;88895;-42
2022/02/08 18:05:17;;;;;;;;;;;1.80;74.50;;;;;;5023396;28;89531;-43
2022/02/08 18:07:44;;;;;;;;;;;1.80;74.60;;;;;;5023519;28;87174;-43
2022/02/08 18:10:10;;;;;;;;;;;1.80;74.40;;;;;;5025349;28;88858;-44
2022/02/08 18:12:37;;;;;;;;;;;1.80;74.60;;;;;;5023490;28;86918;-44
2022/02/08 18:15:08;;;;;;;;;;;1.80;74.70;;;;;;5023476;28;88818;-42
2022/02/08 18:17:38;;;;;;;;;;;1.80;74.80;;;;;;5021549;28;91213;-42
2022/02/08 18:20:22;;;;;;;;;;;1.80;74.70;;;;;;5023342;28;86993;-43
2022/02/08 18:25:39;;;;;;;;;;;1.70;74.60;;;;;;5022984;28;88090;-43
2022/02/08 19:19:34;;;;;;;;;;;1.70;75.40;;;;;;5024222;28;86918;-42
2022/02/08 19:21:59;;;;;;;;;;;1.70;75.50;;;;;;5022883;28;89258;-42
2022/02/08 19:24:25;;;;;;;;;;;1.70;75.40;;;;;;5022574;28;87230;-44
2022/02/08 19:26:52;;;;;;;;;;;1.70;75.50;;;;;;5022568;28;88881;-42
2022/02/08 19:29:18;;;;;;;;;;;1.70;75.50;;;;;;5021530;28;90019;-44
2022/02/08 19:31:44;;;;;;;;;;;1.80;75.50;;;;;;5022397;28;87128;-42
2022/02/08 19:34:10;;;;;;;;;;;1.80;75.50;;;;;;5025358;28;87946;-43
2022/02/08 19:36:35;;;;;;;;;;;1.70;75.40;;;;;;5025455;28;89430;-42
2022/02/08 19:39:03;;;;;;;;;;;1.70;75.40;;;;;;5025756;28;87143;-42
2022/02/08 19:41:29;;;;;;;;;;;1.70;75.40;;;;;;5028387;28;88623;-42
2022/02/08 19:43:55;;;;;;;;;;;1.70;75.40;;;;;;5025446;28;87191;-43
2022/02/08 19:46:21;;;;;;;;;;;1.70;75.40;;;;;;5026193;28;87911;-44
2022/02/08 19:48:46;;;;;;;;;;;1.70;76.00;;;;;;5025383;28;89198;-43
2022/02/08 19:51:12;;;;;;;;;;;1.70;75.50;;;;;;5025409;28;87156;-42
2022/02/08 19:53:38;;;;;;;;;;;1.70;75.50;;;;;;5024925;28;88845;-42
2022/02/08 19:56:24;;;;;;;;;;;1.70;75.50;;;;;;5025160;28;89554;-42
2022/02/08 19:58:53;;;;;;;;;;;1.70;75.60;;;;;;5025653;28;86924;-42
2022/02/08 20:01:25;;;;;;;;;;;1.70;75.70;;;;;;5025430;28;87879;-44
2022/02/08 20:04:34;;;;;;;;;;;1.70;75.60;;;;;;5028246;28;88518;-44
2022/02/08 20:06:40;;;;;;;;;;;1.70;75.60;;;;;;5019330;28;86941;-44
2022/02/08 20:09:07;;;;;;;;;;;1.70;75.60;;;;;;5025004;28;89771;-43
2022/02/08 20:11:32;;;;;;;;;;;1.70;75.70;;;;;;5025791;28;87004;-42
2022/02/08 20:13:59;;;;;;;;;;;1.70;75.70;;;;;;5025338;28;87149;-43
2022/02/08 20:16:27;;;;;;;;;;;1.70;75.60;;;;;;5025049;28;90035;-44
2022/02/08 20:18:55;;;;;;;;;;;1.70;75.80;;;;;;5024425;28;88075;-44
2022/02/08 20:21:23;;;;;;;;;;;1.70;75.70;;;;;;5025303;28;89811;-42
2022/02/08 20:23:48;;;;;;;;;;;1.70;75.70;;;;;;5025011;28;89571;-43
2022/02/08 20:26:14;;;;;;;;;;;1.70;75.70;;;;;;5028057;28;87017;-42
2022/02/08 20:31:15;;;;;;;;;;;1.70;75.60;;;;;;5024660;28;86860;-43
2022/02/08 20:33:41;;;;;;;;;;;1.70;75.60;;;;;;5025301;28;88756;-43
2022/02/08 20:36:06;;;;;;;;;;;1.70;75.70;;;;;;5025064;28;88507;-43
2022/02/08 20:38:32;;;;;;;;;;;1.70;75.80;;;;;;5025122;28;87172;-43
2022/02/08 20:40:58;;;;;;;;;;;1.60;76.30;;;;;;5024752;28;88684;-43
2022/02/08 20:43:23;;;;;;;;;;;1.70;75.80;;;;;;5023140;28;90253;-43
2022/02/08 20:45:50;;;;;;;;;;;1.60;75.80;;;;;;5026871;28;87153;-44
2022/02/08 20:48:16;;;;;;;;;;;1.60;75.80;;;;;;5024247;28;89630;-43
2022/02/08 20:50:41;;;;;;;;;;;1.60;75.80;;;;;;5024924;28;87155;-43
2022/02/08 20:53:12;;;;;;;;;;;1.60;75.90;;;;;;5024690;28;89642;-42
2022/02/08 20:55:41;;;;;;;;;;;1.70;76.00;;;;;;5024291;28;89597;-44
2022/02/08 20:58:15;;;;;;;;;;;1.60;75.80;;;;;;5024519;28;87127;-43
2022/02/08 21:00:42;;;;;;;;;;;1.60;75.90;;;;;;5024969;28;89510;-42
2022/02/08 21:06:00;;;;;;;;;;;1.60;75.70;;;;;;5023016;28;86920;-43
2022/02/08 21:08:26;;;;;;;;;;;1.60;75.70;;;;;;5026449;28;88865;-44
2022/02/08 21:10:52;;;;;;;;;;;1.60;75.70;;;;;;5024331;28;87029;-43
2022/02/08 21:13:28;;;;;;;;;;;1.60;75.80;;;;;;5023992;28;88990;-44
2022/02/08 21:15:54;;;;;;;;;;;1.60;75.80;;;;;;5024292;28;89563;-42
2022/02/08 21:18:19;;;;;;;;;;;1.60;75.80;;;;;;5024283;28;86975;-42
2022/02/08 21:20:45;;;;;;;;;;;1.60;75.80;;;;;;5024294;28;88996;-45
2022/02/08 21:23:11;;;;;;;;;;;1.60;75.90;;;;;;5023888;28;90180;-44
2022/02/08 21:25:38;;;;;;;;;;;1.60;75.80;;;;;;5024651;28;86389;-43
2022/02/08 21:28:06;;;;;;;;;;;1.60;75.90;;;;;;5024109;28;87520;-43
2022/02/08 21:53:54;;;;;;;;;;;1.60;75.90;;;;;;5025064;28;86825;-44
2022/02/08 21:56:20;;;;;;;;;;;1.50;76.20;;;;;;5023170;28;89288;-41
2022/02/08 21:58:45;;;;;;;;;;;1.50;75.90;;;;;;5022990;28;88071;-43
2022/02/08 22:01:11;;;;;;;;;;;1.50;75.90;;;;;;5023464;28;90134;-43
2022/02/08 22:03:37;;;;;;;;;;;1.50;75.90;;;;;;5023594;28;88396;-42
2022/02/08 22:06:04;;;;;;;;;;;1.50;75.90;;;;;;5023555;28;87134;-42
2022/02/08 22:29:11;;;;;;;;;;;1.50;75.90;;;;;;5023371;28;87327;-42
2022/02/08 22:33:58;;;;;;;;;;;1.50;76.00;;;;;;5023415;28;87139;-42
2022/02/08 22:36:33;;;;;;;;;;;1.50;76.00;;;;;;5025760;28;89080;-43
2022/02/08 22:39:04;;;;;;;;;;;1.50;76.00;;;;;;5023034;28;86910;-42
2022/02/08 22:41:57;;;;;;;;;;;1.40;76.00;;;;;;5023726;28;89136;-43
2022/02/08 22:44:32;;;;;;;;;;;1.50;76.00;;;;;;5021897;28;88995;-42
2022/02/08 22:46:59;;;;;;;;;;;1.50;76.00;;;;;;5023207;28;86888;-43
2022/02/08 22:49:26;;;;;;;;;;;1.50;75.90;;;;;;5022243;28;88922;-44
2022/02/08 22:51:51;;;;;;;;;;;1.40;76.00;;;;;;5022453;28;89436;-42
2022/02/08 22:54:17;;;;;;;;;;;1.40;75.90;;;;;;5023191;28;87132;-43
2022/02/08 22:56:44;;;;;;;;;;;1.50;75.90;;;;;;5022838;28;88863;-43
2022/02/08 22:59:11;;;;;;;;;;;1.40;75.90;;;;;;5025321;28;88882;-43
2022/02/08 23:01:37;;;;;;;;;;;1.40;75.90;;;;;;5022846;28;89012;-42
2022/02/08 23:04:03;;;;;;;;;;;1.40;75.90;;;;;;5022235;28;89437;-43
2022/02/08 23:06:32;;;;;;;;;;;1.40;75.90;;;;;;5023319;28;86305;-42
2022/02/08 23:08:57;;;;;;;;;;;1.40;75.90;;;;;;5025426;28;87247;-42
2022/02/08 23:13:53;;;;;;;;;;;1.40;75.80;;;;;;5025851;28;88114;-44
2022/02/08 23:38:01;;;;;;;;;;;1.40;75.80;;;;;;5023860;28;86810;-43
2022/02/08 23:40:27;;;;;;;;;;;1.40;75.80;;;;;;5024817;28;90509;-44
2022/02/08 23:42:55;;;;;;;;;;;1.30;75.80;;;;;;5025060;28;86899;-43
2022/02/08 23:45:20;;;;;;;;;;;1.40;75.90;;;;;;5028436;28;89126;-43
2022/02/08 23:48:09;;;;;;;;;;;1.30;75.80;;;;;;5025689;28;87141;-42
2022/02/08 23:50:40;;;;;;;;;;;1.30;75.90;;;;;;5025622;28;88831;-43
2022/02/08 23:53:18;;;;;;;;;;;1.30;75.90;;;;;;5025393;28;89651;-43
2022/02/08 23:55:53;;;;;;;;;;;1.30;75.90;;;;;;5025588;28;86976;-43
2022/02/08 23:58:19;;;;;;;;;;;1.30;75.90;;;;;;5025938;28;88940;-43
